Nautical Loredana — D5HY8 — position and weather

sailwx.info

Track history (hours):
 
Tides and Currents Weather Stations Pressure Air Temp Water Temp Dewpoint Dewpoint Depression Visibility Wind Speed Wind Dir Waves Ship Positions

Nautical Loredana

Last reported at 2017-Dec-11 09:16 UTC. Time now 2017-Dec-11 19:15 UTC.
Position N 26°22' W 079°26'.

Length 199 m; draft 13.5 m.

Type: Ship. MMSI: 636016820.

Date/timePositionNaut miles runAvg speedWind from/ knotsBaromVisibWave heightAir tempDewpointWater temp
2017-Dec-11 09:16N 26°22' W 079°26'412.6
2017-Dec-11 08:57N 26°18' W 079°26'512.4
2017-Dec-11 08:30N 26°13' W 079°26'612.3
2017-Dec-11 08:00N 26°06' W 079°27'712.2
2017-Dec-11 07:27N 25°60' W 079°28'612.4
2017-Dec-11 07:00N 25°54' W 079°28'612.4
2017-Dec-11 06:30N 25°48' W 079°28'612.3
2017-Dec-11 06:00N 25°42' W 079°29'612.3
2017-Dec-11 05:30N 25°36' W 079°30'  
2017-Dec-04 03:59N 29°53' W 089°58'612.3
2017-Dec-04 03:29N 29°47' W 090°01'511.4
2017-Dec-04 03:00N 29°42' W 089°59'611.7
2017-Dec-04 02:28N 29°37' W 089°54'612.2
2017-Dec-04 02:00N 29°35' W 089°48'  
Track history (hours):
 
Tides and Currents Weather Stations Pressure Air Temp Water Temp Dewpoint Dewpoint Depression Visibility Wind Speed Wind Dir Waves Ship Positions

Nautical Loredana

Last reported at 2017-Dec-11 09:16 UTC. Time now 2017-Dec-11 19:15 UTC.
Position N 26°22' W 079°26'.

Length 199 m; draft 13.5 m.

Type: Ship. MMSI: 636016820.

Date/timePositionNaut miles runAvg speedWind from/ knotsBaromVisibWave heightAir tempDewpointWater temp
2017-Dec-11 09:16N 26°22' W 079°26'412.6
2017-Dec-11 08:57N 26°18' W 079°26'512.4
2017-Dec-11 08:30N 26°13' W 079°26'612.3
2017-Dec-11 08:00N 26°06' W 079°27'712.2
2017-Dec-11 07:27N 25°60' W 079°28'612.4
2017-Dec-11 07:00N 25°54' W 079°28'612.4
2017-Dec-11 06:30N 25°48' W 079°28'612.3
2017-Dec-11 06:00N 25°42' W 079°29'612.3
2017-Dec-11 05:30N 25°36' W 079°30'  
2017-Dec-04 03:59N 29°53' W 089°58'612.3
2017-Dec-04 03:29N 29°47' W 090°01'511.4
2017-Dec-04 03:00N 29°42' W 089°59'611.7
2017-Dec-04 02:28N 29°37' W 089°54'612.2
2017-Dec-04 02:00N 29°35' W 089°48'  

Dump ship's entire track history